Chester, United Kingdom
Current Conditions -  °F | °C
As of 2:20 PM on Monday 20 Oct 2014 (Local Time) from EGNR Reporting Station
Few Clouds Few Clouds  
Wind Chill: 16°   Ceiling: Unl
Heat Index: 16°   Visibility: 6mi
Dew Point: 10°   Wind: 14mph
Humidity: 68%   Direction: 260°W
Pressure: 29.88"   Gusts: NA
Location:  53.19°N, 2.89°W
Report Text: EGNR 201320Z 26012KT 9999 FEW025 16/10 Q1012
Loading
Personal Weather Stations






























Interactive Weather Map
Tropical Storm Tracking
New forecast layout! Learn more

10-Day Weather Forecast

Advertisements
Track Severe Weather on mobile